Time;durP1;ratioP1;P1;durP2;ratioP2;P2;SDS_P1;SDS_P2;PMS_P1;PMS_P2;Temp;Humidity;BMP_temperature;BMP_pressure;BME280_temperature;BME280_humidity;BME280_pressure;Samples;Min_cycle;Max_cycle;Signal;HPM_P1;HPM_P2
2024/03/08 00:02:09;;;;;;;10.40;2.10;;;;;;;;;;4847597;29;20608;-72
2024/03/08 00:04:40;;;;;;;9.05;2.20;;;;;;;;;;4847334;29;20061;-72
2024/03/08 00:07:10;;;;;;;7.40;1.83;;;;;;;;;;4847271;29;20060;-73
2024/03/08 00:09:42;;;;;;;18.27;2.42;;;;;;;;;;4847642;29;20057;-73
2024/03/08 00:12:13;;;;;;;5.70;1.75;;;;;;;;;;4845926;29;20060;-73
2024/03/08 00:14:44;;;;;;;12.10;2.20;;;;;;;;;;4846015;29;20065;-73
2024/03/08 00:17:16;;;;;;;13.57;2.42;;;;;;;;;;4844647;29;20056;-73
2024/03/08 00:19:45;;;;;;;5.85;1.63;;;;;;;;;;4848638;29;20079;-73
2024/03/08 00:22:18;;;;;;;7.47;2.05;;;;;;;;;;4847691;29;20061;-73
2024/03/08 00:24:52;;;;;;;16.67;2.72;;;;;;;;;;4846162;29;20056;-73
2024/03/08 00:27:22;;;;;;;6.63;2.00;;;;;;;;;;4848401;29;20523;-72
2024/03/08 00:29:52;;;;;;;6.70;2.20;;;;;;;;;;4849038;29;20536;-73
2024/03/08 00:32:24;;;;;;;2.95;1.73;;;;;;;;;;4851270;29;20061;-73
2024/03/08 00:34:57;;;;;;;8.15;1.85;;;;;;;;;;4851337;29;20057;-74
2024/03/08 00:37:27;;;;;;;7.38;2.13;;;;;;;;;;4850664;29;20057;-74
2024/03/08 00:39:57;;;;;;;7.35;1.80;;;;;;;;;;4850469;29;20080;-73
2024/03/08 00:42:27;;;;;;;4.97;1.73;;;;;;;;;;4850658;29;20053;-74
2024/03/08 00:44:58;;;;;;;3.88;1.70;;;;;;;;;;4850996;29;20049;-73
2024/03/08 00:47:28;;;;;;;6.68;2.28;;;;;;;;;;4849710;29;20068;-73
2024/03/08 00:49:59;;;;;;;6.38;2.17;;;;;;;;;;4850431;29;20042;-74
2024/03/08 00:52:29;;;;;;;4.80;2.13;;;;;;;;;;4850453;29;20041;-73
2024/03/08 00:54:59;;;;;;;9.35;2.20;;;;;;;;;;4849365;29;20510;-73
2024/03/08 00:57:30;;;;;;;8.93;2.20;;;;;;;;;;4850477;29;20068;-73
2024/03/08 01:00:07;;;;;;;8.75;2.38;;;;;;;;;;4849739;29;20052;-74
2024/03/08 01:02:41;;;;;;;7.45;2.10;;;;;;;;;;4850321;29;20057;-73
2024/03/08 01:05:11;;;;;;;5.78;2.17;;;;;;;;;;4849836;29;20537;-73
2024/03/08 01:07:42;;;;;;;8.07;2.35;;;;;;;;;;4850244;29;20053;-73
2024/03/08 01:10:12;;;;;;;10.07;2.08;;;;;;;;;;4850196;29;20508;-73
2024/03/08 01:12:43;;;;;;;8.32;2.17;;;;;;;;;;4850126;29;20596;-73
2024/03/08 01:15:13;;;;;;;3.95;2.00;;;;;;;;;;4849649;29;20053;-72
2024/03/08 01:17:44;;;;;;;6.10;2.10;;;;;;;;;;4849845;29;20524;-73
2024/03/08 01:20:14;;;;;;;5.28;2.08;;;;;;;;;;4850280;29;20049;-73
2024/03/08 01:22:46;;;;;;;6.38;2.30;;;;;;;;;;4849878;29;20057;-73
2024/03/08 01:25:16;;;;;;;6.32;2.50;;;;;;;;;;4850130;29;20064;-73
2024/03/08 01:27:46;;;;;;;3.08;2.00;;;;;;;;;;4849683;29;20060;-73
2024/03/08 01:30:17;;;;;;;3.45;2.10;;;;;;;;;;4849004;29;20057;-72
2024/03/08 01:32:48;;;;;;;7.70;2.65;;;;;;;;;;4849539;29;20049;-73
2024/03/08 01:35:19;;;;;;;12.63;2.42;;;;;;;;;;4850037;29;20057;-74
2024/03/08 01:37:50;;;;;;;3.63;2.00;;;;;;;;;;4850399;29;20680;-74
2024/03/08 01:40:21;;;;;;;5.60;2.72;;;;;;;;;;4849823;29;20425;-73
2024/03/08 01:42:53;;;;;;;4.85;2.40;;;;;;;;;;4847878;29;20854;-73
2024/03/08 01:45:24;;;;;;;2.33;2.13;;;;;;;;;;4849438;29;20069;-79
2024/03/08 01:47:54;;;;;;;6.22;2.65;;;;;;;;;;4849748;29;20074;-73
2024/03/08 01:50:26;;;;;;;7.97;2.10;;;;;;;;;;4849719;29;20054;-73
2024/03/08 01:53:00;;;;;;;2.58;2.10;;;;;;;;;;4849472;29;21146;-73
2024/03/08 01:55:31;;;;;;;4.82;2.17;;;;;;;;;;4849501;29;20053;-73
2024/03/08 01:58:03;;;;;;;6.78;2.40;;;;;;;;;;4849428;29;20049;-74
2024/03/08 02:00:35;;;;;;;5.43;2.58;;;;;;;;;;4849136;29;20057;-74
2024/03/08 02:03:06;;;;;;;4.78;2.10;;;;;;;;;;4849251;29;20061;-73
2024/03/08 02:05:38;;;;;;;5.68;2.25;;;;;;;;;;4848478;29;20873;-74
2024/03/08 02:08:14;;;;;;;6.78;2.38;;;;;;;;;;4849359;29;20064;-72
2024/03/08 02:10:45;;;;;;;4.13;2.20;;;;;;;;;;4849511;29;20057;-73
2024/03/08 02:13:16;;;;;;;3.95;2.10;;;;;;;;;;4847777;29;20063;-73
2024/03/08 02:15:59;;;;;;;3.75;2.35;;;;;;;;;;4849457;29;20054;-73
2024/03/08 02:18:34;;;;;;;5.43;2.22;;;;;;;;;;4849517;29;20056;-73
2024/03/08 02:21:05;;;;;;;;;;;;;;;;;;4849483;29;20049;-74
2024/03/08 02:23:37;;;;;;;10.07;2.33;;;;;;;;;;4848939;29;20418;-73
2024/03/08 02:26:07;;;;;;;4.15;2.20;;;;;;;;;;4849046;29;20053;-79
2024/03/08 02:28:37;;;;;;;4.50;2.38;;;;;;;;;;4847283;29;20049;-72
2024/03/08 02:31:09;;;;;;;6.88;2.40;;;;;;;;;;4846965;29;20057;-73
2024/03/08 02:33:40;;;;;;;3.53;2.35;;;;;;;;;;4848697;29;20057;-74
2024/03/08 02:36:11;;;;;;;4.15;1.98;;;;;;;;;;4848431;29;20045;-73
2024/03/08 02:38:42;;;;;;;4.13;2.30;;;;;;;;;;4848397;29;20077;-73
2024/03/08 02:41:13;;;;;;;2.53;2.00;;;;;;;;;;4848785;29;20056;-74
2024/03/08 02:43:45;;;;;;;3.97;2.20;;;;;;;;;;4848294;29;20053;-73
2024/03/08 02:46:15;;;;;;;4.25;2.35;;;;;;;;;;4848175;29;20061;-74
2024/03/08 02:48:46;;;;;;;3.78;2.22;;;;;;;;;;4848535;29;20532;-73
2024/03/08 02:51:17;;;;;;;5.45;2.50;;;;;;;;;;4849151;29;20564;-73
2024/03/08 02:53:51;;;;;;;4.55;2.30;;;;;;;;;;4848364;29;20061;-73
2024/03/08 02:56:21;;;;;;;4.60;2.35;;;;;;;;;;4847708;29;20061;-72
2024/03/08 02:58:51;;;;;;;3.42;2.40;;;;;;;;;;4848846;29;20045;-72
2024/03/08 03:01:22;;;;;;;3.42;2.13;;;;;;;;;;4848110;29;20049;-74
2024/03/08 03:03:53;;;;;;;5.95;2.13;;;;;;;;;;4847786;29;20056;-73
2024/03/08 03:06:24;;;;;;;6.07;2.30;;;;;;;;;;4848769;29;20054;-73
2024/03/08 03:08:57;;;;;;;4.18;2.58;;;;;;;;;;4848006;29;20056;-73
2024/03/08 03:11:27;;;;;;;6.43;2.42;;;;;;;;;;4848020;29;20064;-72
2024/03/08 03:13:58;;;;;;;7.13;2.10;;;;;;;;;;4848125;29;20108;-73
2024/03/08 03:16:29;;;;;;;3.75;2.20;;;;;;;;;;4847555;29;20073;-73
2024/03/08 03:19:01;;;;;;;5.68;2.50;;;;;;;;;;4848033;29;20060;-73
2024/03/08 03:21:32;;;;;;;3.78;2.42;;;;;;;;;;4847717;29;20056;-73
2024/03/08 03:24:04;;;;;;;5.10;3.10;;;;;;;;;;4847751;29;20415;-73
2024/03/08 03:26:35;;;;;;;6.35;2.40;;;;;;;;;;4847770;29;20053;-72
2024/03/08 03:29:08;;;;;;;7.28;2.55;;;;;;;;;;4847844;29;20750;-73
2024/03/08 03:31:40;;;;;;;5.13;2.40;;;;;;;;;;4847695;29;20058;-73
2024/03/08 03:34:10;;;;;;;3.78;2.10;;;;;;;;;;4847907;29;20504;-73
2024/03/08 03:36:46;;;;;;;6.10;2.63;;;;;;;;;;4847670;29;20088;-74
2024/03/08 03:39:19;;;;;;;9.85;2.60;;;;;;;;;;4847503;29;20046;-72
2024/03/08 03:41:51;;;;;;;3.92;2.88;;;;;;;;;;4847794;29;20049;-74
2024/03/08 03:44:23;;;;;;;6.82;2.35;;;;;;;;;;4847607;29;20417;-73
2024/03/08 03:46:54;;;;;;;4.00;2.75;;;;;;;;;;4847308;29;20060;-73
2024/03/08 03:49:24;;;;;;;4.03;2.78;;;;;;;;;;4845959;29;20428;-74
2024/03/08 03:51:54;;;;;;;3.72;2.80;;;;;;;;;;4847775;29;20045;-73
2024/03/08 03:54:25;;;;;;;2.60;2.40;;;;;;;;;;4848447;29;20053;-73
2024/03/08 03:56:55;;;;;;;3.97;2.40;;;;;;;;;;4851540;29;20437;-74
2024/03/08 03:59:26;;;;;;;3.90;2.80;;;;;;;;;;4851304;29;20054;-74
2024/03/08 04:01:57;;;;;;;4.70;2.65;;;;;;;;;;4851512;29;20072;-74
2024/03/08 04:04:30;;;;;;;6.32;3.10;;;;;;;;;;4851431;29;20065;-74
2024/03/08 04:07:02;;;;;;;4.78;2.80;;;;;;;;;;4851103;29;20087;-74
2024/03/08 04:09:33;;;;;;;5.35;2.90;;;;;;;;;;4850852;29;20060;-74
2024/03/08 04:12:04;;;;;;;5.63;3.05;;;;;;;;;;4851455;29;20042;-73
2024/03/08 04:14:34;;;;;;;4.68;3.10;;;;;;;;;;4849465;29;20057;-73
2024/03/08 04:17:04;;;;;;;5.18;2.88;;;;;;;;;;4850984;29;20052;-73
2024/03/08 04:19:35;;;;;;;4.18;2.78;;;;;;;;;;4851112;29;20060;-74
2024/03/08 04:22:07;;;;;;;6.28;3.05;;;;;;;;;;4850857;29;20045;-74
2024/03/08 04:24:39;;;;;;;5.18;3.38;;;;;;;;;;4850846;29;20057;-72
2024/03/08 04:27:10;;;;;;;3.60;2.92;;;;;;;;;;4850839;29;20830;-73
2024/03/08 04:29:40;;;;;;;5.78;2.85;;;;;;;;;;4850973;29;20050;-74
2024/03/08 04:32:13;;;;;;;5.05;3.22;;;;;;;;;;4851384;29;20046;-73
2024/03/08 04:34:44;;;;;;;3.20;2.72;;;;;;;;;;4850697;29;20038;-73
2024/03/08 04:37:16;;;;;;;6.28;3.20;;;;;;;;;;4850579;29;20068;-74
2024/03/08 04:39:46;;;;;;;4.70;3.20;;;;;;;;;;4834413;29;20068;-73
2024/03/08 04:42:17;;;;;;;6.88;3.30;;;;;;;;;;4851274;29;20524;-73
2024/03/08 04:44:49;;;;;;;4.10;3.00;;;;;;;;;;4850671;29;20057;-73
2024/03/08 04:47:20;;;;;;;6.03;3.30;;;;;;;;;;4851829;29;20064;-74
2024/03/08 04:49:50;;;;;;;4.95;3.10;;;;;;;;;;4849552;29;20642;-73
2024/03/08 04:52:21;;;;;;;4.28;3.15;;;;;;;;;;4850442;29;20449;-74
2024/03/08 04:54:52;;;;;;;4.03;3.38;;;;;;;;;;4850643;29;20068;-74
2024/03/08 04:57:23;;;;;;;6.00;3.15;;;;;;;;;;4848440;29;20522;-73
2024/03/08 04:59:53;;;;;;;5.30;3.60;;;;;;;;;;4850633;29;20567;-74
2024/03/08 05:02:24;;;;;;;4.45;3.03;;;;;;;;;;4850234;29;20049;-73
2024/03/08 05:04:56;;;;;;;4.05;3.40;;;;;;;;;;4850149;29;20057;-74
2024/03/08 05:07:26;;;;;;;4.95;3.35;;;;;;;;;;4850271;29;20049;-74
2024/03/08 05:09:56;;;;;;;8.18;3.65;;;;;;;;;;4848428;29;20076;-73
2024/03/08 05:12:26;;;;;;;8.50;4.10;;;;;;;;;;4850124;29;20064;-74
2024/03/08 05:14:57;;;;;;;4.75;3.33;;;;;;;;;;4850216;29;20049;-73
2024/03/08 05:17:27;;;;;;;7.15;4.10;;;;;;;;;;4850497;29;20595;-74
2024/03/08 05:19:58;;;;;;;5.35;3.38;;;;;;;;;;4849753;29;20061;-73
2024/03/08 05:22:28;;;;;;;6.50;3.72;;;;;;;;;;4850139;29;20524;-74
2024/03/08 05:24:58;;;;;;;6.88;3.60;;;;;;;;;;4849575;29;20520;-73
2024/03/08 05:27:29;;;;;;;6.55;3.65;;;;;;;;;;4850227;29;20057;-73
2024/03/08 05:30:01;;;;;;;8.82;3.75;;;;;;;;;;4850007;29;20493;-73
2024/03/08 05:32:32;;;;;;;6.20;3.88;;;;;;;;;;4849779;29;20064;-73
2024/03/08 05:35:07;;;;;;;4.22;3.75;;;;;;;;;;4849991;29;20064;-74
2024/03/08 05:37:37;;;;;;;6.00;3.58;;;;;;;;;;4850167;29;20065;-73
2024/03/08 05:40:09;;;;;;;7.00;3.67;;;;;;;;;;4849436;29;20049;-73
2024/03/08 05:42:46;;;;;;;4.55;3.60;;;;;;;;;;4849427;29;20056;-73
2024/03/08 05:45:16;;;;;;;5.38;4.07;;;;;;;;;;4849214;29;20060;-73
2024/03/08 05:47:48;;;;;;;5.43;3.90;;;;;;;;;;4849550;29;20076;-73
2024/03/08 05:50:19;;;;;;;6.47;3.80;;;;;;;;;;4847552;29;20062;-73
2024/03/08 05:52:50;;;;;;;8.65;4.00;;;;;;;;;;4849156;29;20054;-73
2024/03/08 05:55:21;;;;;;;7.15;4.07;;;;;;;;;;4849278;29;20057;-73
2024/03/08 05:57:53;;;;;;;6.32;3.95;;;;;;;;;;4848186;29;20414;-74
2024/03/08 06:00:24;;;;;;;4.70;4.18;;;;;;;;;;4849731;29;20052;-73
2024/03/08 06:02:55;;;;;;;6.90;4.13;;;;;;;;;;4847790;29;20062;-74
2024/03/08 06:05:26;;;;;;;6.40;3.63;;;;;;;;;;4849024;29;21067;-73
2024/03/08 06:07:57;;;;;;;5.63;3.80;;;;;;;;;;4849246;29;20061;-74
2024/03/08 06:10:28;;;;;;;6.65;4.13;;;;;;;;;;4849816;29;20060;-73
2024/03/08 06:12:59;;;;;;;6.70;4.32;;;;;;;;;;4849469;29;20065;-73
2024/03/08 06:15:30;;;;;;;6.43;4.45;;;;;;;;;;4848683;29;20056;-73
2024/03/08 06:18:05;;;;;;;6.07;3.83;;;;;;;;;;4848323;29;20061;-74
2024/03/08 06:20:37;;;;;;;5.03;4.38;;;;;;;;;;4849003;29;20045;-73
2024/03/08 06:23:07;;;;;;;5.18;3.97;;;;;;;;;;4848748;29;20433;-72
2024/03/08 06:25:37;;;;;;;5.30;3.60;;;;;;;;;;4847273;29;20065;-73
2024/03/08 06:28:08;;;;;;;5.60;3.47;;;;;;;;;;4849321;29;20049;-74
2024/03/08 06:30:38;;;;;;;9.23;4.15;;;;;;;;;;4848657;29;20053;-74
2024/03/08 06:33:09;;;;;;;9.10;4.38;;;;;;;;;;4849764;29;20069;-74
2024/03/08 06:35:39;;;;;;;9.13;4.65;;;;;;;;;;4850246;29;20065;-74
2024/03/08 06:38:11;;;;;;;5.00;3.83;;;;;;;;;;4851237;29;20064;-73
2024/03/08 06:40:42;;;;;;;6.18;4.13;;;;;;;;;;4850755;29;20069;-74
2024/03/08 06:43:15;;;;;;;6.93;4.00;;;;;;;;;;4851204;29;20566;-72
2024/03/08 06:45:48;;;;;;;7.55;3.67;;;;;;;;;;4851106;29;20053;-74
2024/03/08 06:48:18;;;;;;;5.80;4.30;;;;;;;;;;4851588;29;20056;-73
2024/03/08 06:50:50;;;;;;;12.07;4.32;;;;;;;;;;4851474;29;20057;-73
2024/03/08 06:53:20;;;;;;;12.10;4.03;;;;;;;;;;4850976;29;20045;-74
2024/03/08 06:55:54;;;;;;;6.03;4.40;;;;;;;;;;4851169;29;20069;-74
2024/03/08 06:58:25;;;;;;;8.00;3.92;;;;;;;;;;4850729;29;20056;-73
2024/03/08 07:00:58;;;;;;;6.68;4.28;;;;;;;;;;4850455;29;20137;-74
2024/03/08 07:03:29;;;;;;;7.60;4.53;;;;;;;;;;4850753;29;20509;-74
2024/03/08 07:05:59;;;;;;;12.73;5.97;;;;;;;;;;4850872;29;20399;-74
2024/03/08 07:08:29;;;;;;;12.02;6.88;;;;;;;;;;4850785;29;20468;-74
2024/03/08 07:11:00;;;;;;;10.95;6.22;;;;;;;;;;4850195;29;20058;-74
2024/03/08 07:13:31;;;;;;;5.45;4.20;;;;;;;;;;4851309;29;20041;-73
2024/03/08 07:16:02;;;;;;;7.63;4.90;;;;;;;;;;4851439;29;20055;-74
2024/03/08 07:18:31;;;;;;;8.48;4.82;;;;;;;;;;4851090;29;20050;-74
2024/03/08 07:21:03;;;;;;;6.32;4.50;;;;;;;;;;4851014;29;20060;-73
2024/03/08 07:23:54;;;;;;;6.22;4.30;;;;;;;;;;4851095;29;20064;-73
2024/03/08 07:26:24;;;;;;;9.23;5.90;;;;;;;;;;4850288;29;20416;-73
2024/03/08 07:28:55;;;;;;;6.63;4.68;;;;;;;;;;4849741;29;20056;-74
2024/03/08 07:33:55;;;;;;;10.43;5.10;;;;;;;;;;4850899;29;20080;-74
2024/03/08 07:36:26;;;;;;;7.97;4.70;;;;;;;;;;4850919;29;20065;-73
2024/03/08 07:38:57;;;;;;;9.25;5.03;;;;;;;;;;4851157;29;20496;-73
2024/03/08 07:41:31;;;;;;;8.95;4.88;;;;;;;;;;4851772;29;20433;-73
2024/03/08 07:44:03;;;;;;;9.77;4.95;;;;;;;;;;4851077;29;20060;-74
2024/03/08 07:46:34;;;;;;;8.02;4.93;;;;;;;;;;4850714;29;20057;-74
2024/03/08 07:49:05;;;;;;;9.88;4.68;;;;;;;;;;4849967;29;20053;-73
2024/03/08 07:51:36;;;;;;;8.20;4.53;;;;;;;;;;4849988;29;20061;-72
2024/03/08 07:54:07;;;;;;;7.75;4.97;;;;;;;;;;4850057;29;20453;-73
2024/03/08 07:56:38;;;;;;;6.53;4.78;;;;;;;;;;4850091;29;20065;-74
2024/03/08 07:59:10;;;;;;;8.45;4.70;;;;;;;;;;4850132;29;20441;-74
2024/03/08 08:01:41;;;;;;;7.75;4.85;;;;;;;;;;4850509;29;20061;-74
2024/03/08 08:04:12;;;;;;;5.13;4.38;;;;;;;;;;4848389;29;20057;-73
2024/03/08 08:06:43;;;;;;;8.48;4.97;;;;;;;;;;4850206;29;20409;-74
2024/03/08 08:09:28;;;;;;;6.30;4.72;;;;;;;;;;4850078;29;20060;-74
2024/03/08 08:11:58;;;;;;;7.45;4.72;;;;;;;;;;4849833;29;20060;-74
2024/03/08 08:14:29;;;;;;;9.90;4.78;;;;;;;;;;4850182;29;20494;-73
2024/03/08 08:17:03;;;;;;;9.35;5.18;;;;;;;;;;4850549;29;20053;-74
2024/03/08 08:19:38;;;;;;;8.93;4.80;;;;;;;;;;4850783;29;20053;-73
2024/03/08 08:22:08;;;;;;;6.07;4.97;;;;;;;;;;4849947;29;20533;-73
2024/03/08 08:24:38;;;;;;;6.47;4.43;;;;;;;;;;4849284;29;20065;-73
2024/03/08 08:27:09;;;;;;;6.43;4.45;;;;;;;;;;4850338;29;20422;-74
2024/03/08 08:29:39;;;;;;;9.32;5.18;;;;;;;;;;4850239;29;20053;-73
2024/03/08 08:32:10;;;;;;;6.63;5.20;;;;;;;;;;4850494;29;20057;-74
2024/03/08 08:34:42;;;;;;;7.65;4.95;;;;;;;;;;4849243;29;20067;-73
2024/03/08 08:37:13;;;;;;;5.50;4.45;;;;;;;;;;4849012;29;20065;-74
2024/03/08 08:39:45;;;;;;;7.20;4.78;;;;;;;;;;4850511;29;20819;-74
2024/03/08 08:42:16;;;;;;;6.07;4.38;;;;;;;;;;4853023;29;20052;-74
2024/03/08 08:44:49;;;;;;;6.88;4.55;;;;;;;;;;4853514;29;20064;-74
2024/03/08 08:47:21;;;;;;;6.88;4.30;;;;;;;;;;4853728;29;20050;-73
2024/03/08 08:49:51;;;;;;;6.20;4.80;;;;;;;;;;4853637;29;20726;-72
2024/03/08 08:52:23;;;;;;;7.43;4.63;;;;;;;;;;4853147;29;20057;-73
2024/03/08 08:54:53;;;;;;;7.47;5.20;;;;;;;;;;4853151;29;20053;-74
2024/03/08 08:57:23;;;;;;;7.45;4.22;;;;;;;;;;4853009;29;20410;-74
2024/03/08 08:59:53;;;;;;;5.45;4.53;;;;;;;;;;4851819;29;20061;-74
2024/03/08 09:02:25;;;;;;;8.30;4.78;;;;;;;;;;4853630;29;20049;-74
2024/03/08 09:04:56;;;;;;;10.93;5.30;;;;;;;;;;4853190;29;20060;-74
2024/03/08 09:07:27;;;;;;;7.28;5.28;;;;;;;;;;4852837;29;20509;-73
2024/03/08 09:09:58;;;;;;;10.25;5.20;;;;;;;;;;4853029;29;20060;-72
2024/03/08 09:12:44;;;;;;;11.05;5.15;;;;;;;;;;4853039;29;20053;-74
2024/03/08 09:15:17;;;;;;;9.43;4.68;;;;;;;;;;4852682;29;20042;-76
2024/03/08 09:17:48;;;;;;;18.83;5.25;;;;;;;;;;4852774;29;20053;-74
2024/03/08 09:20:18;;;;;;;16.25;6.28;;;;;;;;;;4852828;29;20496;-73
2024/03/08 09:22:49;;;;;;;11.73;5.25;;;;;;;;;;4851198;29;20549;-73
2024/03/08 09:25:20;;;;;;;14.63;5.00;;;;;;;;;;4852702;29;20057;-73
2024/03/08 09:27:51;;;;;;;12.90;5.53;;;;;;;;;;4852624;29;20057;-74
2024/03/08 09:30:21;;;;;;;11.05;4.90;;;;;;;;;;4852527;29;20053;-73
2024/03/08 09:32:51;;;;;;;9.98;5.05;;;;;;;;;;4852173;29;20056;-74
2024/03/08 09:35:25;;;;;;;12.15;5.18;;;;;;;;;;4852189;29;20049;-73
2024/03/08 09:37:56;;;;;;;12.55;6.00;;;;;;;;;;4852514;29;20070;-74
2024/03/08 09:40:27;;;;;;;14.80;5.88;;;;;;;;;;4852629;29;20544;-81
2024/03/08 09:42:57;;;;;;;13.85;5.50;;;;;;;;;;4852339;29;20064;-73
2024/03/08 09:45:29;;;;;;;15.68;5.68;;;;;;;;;;4851902;29;20094;-76
2024/03/08 09:48:01;;;;;;;14.38;5.85;;;;;;;;;;4850765;29;20064;-73
2024/03/08 09:50:32;;;;;;;9.80;7.15;;;;;;;;;;4852967;29;20084;-74
2024/03/08 09:53:03;;;;;;;7.75;5.80;;;;;;;;;;4851556;29;20058;-74
2024/03/08 09:55:36;;;;;;;5.70;4.65;;;;;;;;;;4852907;29;20056;-73
2024/03/08 10:01:07;;;;;;;8.57;4.78;;;;;;;;;;4855150;29;20065;-72
2024/03/08 10:03:38;;;;;;;10.85;5.30;;;;;;;;;;4851532;29;20061;-72
2024/03/08 10:06:10;;;;;;;14.23;4.85;;;;;;;;;;4851184;29;20053;-74
2024/03/08 10:08:41;;;;;;;8.68;4.80;;;;;;;;;;4851718;29;20647;-74
2024/03/08 10:11:14;;;;;;;6.30;4.90;;;;;;;;;;4851331;29;20053;-73
2024/03/08 10:13:47;;;;;;;9.02;4.72;;;;;;;;;;4851677;29;20061;-74
2024/03/08 10:16:18;;;;;;;4.80;3.85;;;;;;;;;;4851626;29;20049;-74
2024/03/08 10:18:49;;;;;;;7.55;4.50;;;;;;;;;;4851106;29;20488;-73
2024/03/08 10:21:20;;;;;;;5.38;4.47;;;;;;;;;;4851989;29;20068;-74
2024/03/08 10:23:51;;;;;;;5.68;4.43;;;;;;;;;;4851576;29;20061;-78
2024/03/08 10:26:21;;;;;;;10.57;5.50;;;;;;;;;;4851590;29;20046;-74
2024/03/08 10:28:53;;;;;;;10.27;4.78;;;;;;;;;;4852050;29;20718;-73
2024/03/08 10:31:23;;;;;;;9.05;5.47;;;;;;;;;;4851509;29;20070;-73
2024/03/08 10:33:54;;;;;;;8.27;5.25;;;;;;;;;;4851349;29;20061;-75
2024/03/08 10:36:25;;;;;;;13.85;5.47;;;;;;;;;;4850874;29;20061;-76
2024/03/08 10:39:01;;;;;;;8.98;4.65;;;;;;;;;;4849377;29;20057;-76
2024/03/08 10:41:35;;;;;;;10.32;5.60;;;;;;;;;;4851985;29;20053;-78
2024/03/08 10:44:12;;;;;;;8.52;5.53;;;;;;;;;;4851767;29;20082;-75
2024/03/08 10:46:55;;;;;;;14.10;4.43;;;;;;;;;;4851179;29;20045;-76
2024/03/08 10:49:35;;;;;;;7.00;4.35;;;;;;;;;;4850061;29;20049;-73
2024/03/08 10:52:10;;;;;;;27.27;9.60;;;;;;;;;;4851034;29;20060;-75
2024/03/08 10:54:43;;;;;;;16.88;7.40;;;;;;;;;;4850716;29;20060;-75
2024/03/08 10:57:15;;;;;;;12.57;4.70;;;;;;;;;;4850706;29;20065;-76
2024/03/08 10:59:49;;;;;;;15.05;5.90;;;;;;;;;;4851004;29;20053;-78
2024/03/08 11:02:20;;;;;;;11.10;5.20;;;;;;;;;;4851093;29;20831;-75
2024/03/08 11:04:56;;;;;;;11.13;4.82;;;;;;;;;;4850830;29;20050;-75
2024/03/08 11:07:28;;;;;;;11.68;4.82;;;;;;;;;;4850320;29;20049;-75
2024/03/08 11:09:59;;;;;;;16.92;5.78;;;;;;;;;;4850844;29;20472;-72
2024/03/08 11:12:37;;;;;;;9.07;5.03;;;;;;;;;;4850957;29;20065;-75
2024/03/08 11:15:13;;;;;;;8.20;5.18;;;;;;;;;;4850816;29;20604;-77
2024/03/08 11:17:51;;;;;;;28.30;5.88;;;;;;;;;;4850743;29;20053;-73
2024/03/08 11:20:23;;;;;;;10.05;5.20;;;;;;;;;;4850635;29;20056;-76
2024/03/08 11:22:56;;;;;;;14.52;5.15;;;;;;;;;;4851703;29;20058;-73
2024/03/08 11:25:36;;;;;;;45.85;6.70;;;;;;;;;;4849345;29;20772;-81
2024/03/08 11:28:16;;;;;;;13.35;4.80;;;;;;;;;;4850022;29;20833;-73
2024/03/08 11:30:59;;;;;;;22.20;5.43;;;;;;;;;;4850696;29;20052;-74
2024/03/08 11:33:34;;;;;;;11.07;4.32;;;;;;;;;;4851764;29;20494;-74
2024/03/08 11:36:21;;;;;;;17.27;5.20;;;;;;;;;;4850486;29;20052;-73
2024/03/08 11:38:54;;;;;;;;;;;;;;;;;;4851067;29;20094;-78
2024/03/08 11:41:25;;;;;;;9.18;4.15;;;;;;;;;;4850914;29;20289;-74
2024/03/08 11:44:06;;;;;;;17.02;9.18;;;;;;;;;;4849091;29;20057;-74
2024/03/08 11:46:36;;;;;;;13.88;4.53;;;;;;;;;;4850190;29;20057;-72
2024/03/08 11:49:07;;;;;;;18.98;8.15;;;;;;;;;;4849907;29;20064;-75
2024/03/08 11:51:37;;;;;;;9.30;4.22;;;;;;;;;;4849856;29;20061;-72
2024/03/08 11:54:15;;;;;;;11.93;4.68;;;;;;;;;;4850106;29;20076;-73
2024/03/08 11:56:47;;;;;;;19.80;4.80;;;;;;;;;;4850430;29;20061;-72
2024/03/08 11:59:18;;;;;;;17.08;5.63;;;;;;;;;;4850502;29;20057;-72
2024/03/08 12:02:19;;;;;;;9.98;4.25;;;;;;;;;;4848468;29;20066;-72
2024/03/08 12:05:00;;;;;;;12.93;4.78;;;;;;;;;;4850610;29;20064;-78
2024/03/08 12:07:32;;;;;;;11.43;5.05;;;;;;;;;;4851191;29;20436;-73
2024/03/08 12:10:35;;;;;;;12.88;4.90;;;;;;;;;;4848904;29;20875;-72
2024/03/08 12:13:12;;;;;;;11.93;4.30;;;;;;;;;;4820217;29;20062;-72
2024/03/08 12:15:44;;;;;;;9.38;4.10;;;;;;;;;;4851932;29;20061;-72
2024/03/08 12:18:14;;;;;;;11.30;3.53;;;;;;;;;;4853638;29;20064;-73
2024/03/08 12:20:49;;;;;;;16.35;4.05;;;;;;;;;;4853515;29;20425;-73
2024/03/08 12:23:20;;;;;;;8.18;3.85;;;;;;;;;;4853886;29;20061;-72
2024/03/08 12:25:50;;;;;;;9.90;4.80;;;;;;;;;;4853345;29;20053;-72
2024/03/08 12:28:21;;;;;;;11.32;4.80;;;;;;;;;;4851917;29;20056;-75
2024/03/08 12:30:55;;;;;;;24.65;7.43;;;;;;;;;;4853838;29;20045;-72
2024/03/08 12:33:27;;;;;;;19.73;7.00;;;;;;;;;;4854494;29;20076;-73
2024/03/08 12:35:58;;;;;;;10.45;3.85;;;;;;;;;;4851796;29;20096;-72
2024/03/08 12:38:32;;;;;;;7.78;3.20;;;;;;;;;;4853695;29;20493;-75
2024/03/08 12:41:04;;;;;;;11.93;4.45;;;;;;;;;;4851936;29;20068;-74
2024/03/08 12:43:35;;;;;;;16.08;3.92;;;;;;;;;;4853603;29;20056;-73
2024/03/08 12:46:05;;;;;;;8.73;3.65;;;;;;;;;;4856396;29;20053;-75
2024/03/08 12:48:40;;;;;;;14.27;5.43;;;;;;;;;;4853442;29;20611;-75
2024/03/08 12:51:10;;;;;;;11.95;5.10;;;;;;;;;;4853122;29;20041;-74
2024/03/08 12:53:48;;;;;;;10.20;4.15;;;;;;;;;;4853489;29;20398;-75
2024/03/08 12:56:30;;;;;;;6.65;4.13;;;;;;;;;;4853231;29;20058;-74
2024/03/08 12:59:03;;;;;;;9.95;4.93;;;;;;;;;;4851910;29;20049;-74
2024/03/08 13:01:33;;;;;;;11.93;5.10;;;;;;;;;;4851398;29;20054;-74
2024/03/08 13:04:06;;;;;;;12.02;4.97;;;;;;;;;;4852577;29;20517;-74
2024/03/08 13:06:38;;;;;;;12.35;5.60;;;;;;;;;;4852558;29;20053;-74
2024/03/08 13:09:08;;;;;;;7.90;4.93;;;;;;;;;;4853219;29;20049;-77
2024/03/08 13:11:39;;;;;;;9.77;5.55;;;;;;;;;;4851596;29;20049;-75
2024/03/08 13:14:10;;;;;;;13.32;5.20;;;;;;;;;;4852724;29;20042;-75
2024/03/08 13:16:47;;;;;;;9.73;5.15;;;;;;;;;;4852406;29;20053;-74
2024/03/08 13:19:21;;;;;;;9.95;5.18;;;;;;;;;;4852842;29;20413;-73
2024/03/08 13:21:53;;;;;;;10.98;5.70;;;;;;;;;;4852902;29;20513;-73
2024/03/08 13:24:24;;;;;;;9.65;4.85;;;;;;;;;;4852898;29;20046;-74
2024/03/08 13:26:54;;;;;;;13.73;6.55;;;;;;;;;;4851601;29;20068;-75
2024/03/08 13:29:24;;;;;;;12.15;5.57;;;;;;;;;;4852998;29;20062;-73
2024/03/08 13:32:00;;;;;;;10.43;6.57;;;;;;;;;;4852644;29;20413;-74
2024/03/08 13:34:35;;;;;;;;;;;;;;;;;;4852727;29;20517;-74
2024/03/08 13:37:06;;;;;;;8.02;5.50;;;;;;;;;;4852079;29;19928;-74
2024/03/08 13:39:40;;;;;;;11.18;6.00;;;;;;;;;;4852341;29;20049;-74
2024/03/08 13:42:16;;;;;;;9.65;6.13;;;;;;;;;;4852600;29;20053;-74
2024/03/08 13:44:46;;;;;;;12.32;7.00;;;;;;;;;;4852272;29;20053;-74
2024/03/08 13:47:18;;;;;;;11.25;5.72;;;;;;;;;;4852098;29;20057;-74
2024/03/08 13:49:50;;;;;;;14.73;6.55;;;;;;;;;;4851965;29;20092;-74
2024/03/08 13:52:21;;;;;;;10.93;5.50;;;;;;;;;;4852440;29;20623;-74
2024/03/08 13:54:54;;;;;;;11.57;6.13;;;;;;;;;;4852360;29;20053;-73
2024/03/08 13:57:24;;;;;;;11.65;6.78;;;;;;;;;;4851867;29;20061;-73
2024/03/08 13:59:54;;;;;;;10.25;6.90;;;;;;;;;;4852061;29;20053;-77
2024/03/08 14:02:28;;;;;;;10.18;6.70;;;;;;;;;;4851629;29;20049;-73
2024/03/08 14:05:01;;;;;;;11.77;7.30;;;;;;;;;;4851613;29;20049;-74
2024/03/08 14:07:33;;;;;;;11.43;7.25;;;;;;;;;;4852099;29;20069;-74
2024/03/08 14:10:06;;;;;;;11.23;7.05;;;;;;;;;;4852180;29;20037;-74
2024/03/08 14:12:38;;;;;;;12.35;6.90;;;;;;;;;;4851123;29;20062;-74
2024/03/08 14:15:10;;;;;;;11.63;7.43;;;;;;;;;;4852067;29;20076;-74
2024/03/08 14:17:41;;;;;;;18.15;8.13;;;;;;;;;;4851339;29;20061;-74
2024/03/08 14:20:12;;;;;;;10.80;7.03;;;;;;;;;;4851549;29;20050;-76
2024/03/08 14:22:44;;;;;;;13.95;7.20;;;;;;;;;;4851756;29;20061;-74
2024/03/08 14:25:16;;;;;;;10.85;7.00;;;;;;;;;;4849539;29;20061;-74
2024/03/08 14:27:49;;;;;;;14.68;7.85;;;;;;;;;;4851665;29;20060;-74
2024/03/08 14:30:37;;;;;;;12.60;7.45;;;;;;;;;;4851354;29;20509;-78
2024/03/08 14:33:09;;;;;;;12.57;7.00;;;;;;;;;;4851533;29;20419;-74
2024/03/08 14:35:42;;;;;;;12.50;6.97;;;;;;;;;;4851259;29;20428;-74
2024/03/08 14:38:12;;;;;;;12.70;7.13;;;;;;;;;;4851457;29;20046;-77
2024/03/08 14:40:46;;;;;;;12.48;6.50;;;;;;;;;;4851392;29;20053;-75
2024/03/08 14:43:21;;;;;;;14.73;6.57;;;;;;;;;;4851964;29;20112;-74
2024/03/08 14:45:52;;;;;;;9.90;6.45;;;;;;;;;;4851442;29;20056;-74
2024/03/08 14:48:22;;;;;;;8.90;5.78;;;;;;;;;;4852516;29;20061;-75
2024/03/08 14:50:52;;;;;;;9.15;5.35;;;;;;;;;;4851674;29;20603;-73
2024/03/08 14:53:24;;;;;;;8.57;5.55;;;;;;;;;;4851129;29;20060;-74
2024/03/08 14:55:55;;;;;;;7.13;4.95;;;;;;;;;;4850737;29;20053;-74
2024/03/08 14:58:27;;;;;;;9.77;5.90;;;;;;;;;;4851110;29;20080;-76
2024/03/08 15:01:00;;;;;;;13.90;5.70;;;;;;;;;;4850872;29;20061;-76
2024/03/08 15:03:32;;;;;;;7.82;5.25;;;;;;;;;;4851157;29;20459;-75
2024/03/08 15:06:08;;;;;;;6.95;4.57;;;;;;;;;;4850829;29;20545;-77
2024/03/08 15:08:39;;;;;;;9.45;5.60;;;;;;;;;;4850819;29;20053;-76
2024/03/08 15:11:12;;;;;;;7.53;4.40;;;;;;;;;;4851055;29;20490;-76
2024/03/08 15:13:46;;;;;;;11.00;5.65;;;;;;;;;;4851080;29;20072;-76
2024/03/08 15:16:17;;;;;;;6.50;4.50;;;;;;;;;;4850990;29;20417;-76